Time;durP1;ratioP1;P1;durP2;ratioP2;P2;SDS_P1;SDS_P2;PMS_P1;PMS_P2;Temp;Humidity;BMP_temperature;BMP_pressure;BME280_temperature;BME280_humidity;BME280_pressure;Samples;Min_cycle;Max_cycle;Signal;HPM_P1;HPM_P2
2024/02/01 00:00:58;;;;;;;;;;;6.30;99.90;;;;;;5051046;28;19917;-76
2024/02/01 00:03:24;;;;;;;;;;;6.30;99.90;;;;;;5045548;28;19924;-77
2024/02/01 00:05:50;;;;;;;;;;;6.30;99.90;;;;;;5037085;28;19916;-77
2024/02/01 00:08:15;;;;;;;;;;;6.40;99.90;;;;;;5033708;28;20007;-77
2024/02/01 00:10:41;;;;;;;;;;;6.40;99.90;;;;;;5041232;28;19923;-76
2024/02/01 00:13:07;;;;;;;;;;;6.40;99.90;;;;;;5053932;28;19913;-77
2024/02/01 00:15:33;;;;;;;;;;;6.40;99.90;;;;;;5053000;28;19912;-77
2024/02/01 00:17:59;;;;;;;;;;;6.40;99.90;;;;;;5043524;28;20283;-76
2024/02/01 00:20:25;;;;;;;;;;;6.40;99.90;;;;;;5039228;28;20276;-76
2024/02/01 00:22:50;;;;;;;;;;;6.40;99.90;;;;;;5052378;28;19925;-76
2024/02/01 00:25:18;;;;;;;;;;;6.50;99.90;;;;;;5060444;28;20374;-76
2024/02/01 00:27:45;;;;;;;;;;;6.50;99.90;;;;;;5037291;28;19928;-75
2024/02/01 00:30:10;;;;;;;;;;;6.50;99.90;;;;;;5038580;28;19913;-76
2024/02/01 00:32:36;;;;;;;;;;;6.50;99.90;;;;;;5032845;28;19940;-76
2024/02/01 00:35:02;;;;;;;;;;;6.50;99.90;;;;;;5039230;28;19923;-76
2024/02/01 00:37:28;;;;;;;;;;;6.40;99.90;;;;;;5023245;28;19917;-76
2024/02/01 00:39:53;;;;;;;;;;;6.50;99.90;;;;;;5019240;28;19943;-76
2024/02/01 00:42:19;;;;;;;;;;;6.50;99.90;;;;;;5038219;28;19921;-76
2024/02/01 00:44:45;;;;;;;;;;;6.50;99.90;;;;;;5016572;28;19931;-77
2024/02/01 00:47:10;;;;;;;;;;;6.50;99.90;;;;;;5021634;28;19917;-77
2024/02/01 00:49:36;;;;;;;;;;;6.50;99.90;;;;;;5052911;28;20549;-76
2024/02/01 00:52:02;;;;;;;;;;;6.50;99.90;;;;;;5037181;28;20012;-77
2024/02/01 00:54:28;;;;;;;;;;;6.50;99.90;;;;;;5050649;28;19967;-76
2024/02/01 00:56:53;;;;;;;;;;;6.50;99.90;;;;;;5033774;28;19948;-76
2024/02/01 00:59:19;;;;;;;;;;;6.50;99.90;;;;;;5038339;28;19948;-76
2024/02/01 01:01:45;;;;;;;;;;;6.50;99.90;;;;;;5040694;28;19985;-77
2024/02/01 01:04:10;;;;;;;;;;;6.50;99.90;;;;;;5040584;28;20333;-77
2024/02/01 01:06:36;;;;;;;;;;;6.50;99.90;;;;;;5024728;28;19951;-77
2024/02/01 01:09:02;;;;;;;;;;;6.50;99.90;;;;;;5017327;28;19940;-77
2024/02/01 01:11:30;;;;;;;;;;;6.50;99.90;;;;;;5031030;28;20210;-79
2024/02/01 01:13:55;;;;;;;;;;;6.50;99.90;;;;;;5024267;28;19931;-77
2024/02/01 01:16:21;;;;;;;;;;;6.50;99.90;;;;;;5046704;28;19917;-77
2024/02/01 01:18:48;;;;;;;;;;;6.50;99.90;;;;;;5037023;28;19943;-77
2024/02/01 01:21:14;;;;;;;;;;;6.50;99.90;;;;;;5053821;28;20439;-77
2024/02/01 01:23:40;;;;;;;;;;;6.50;99.90;;;;;;5032832;28;20017;-77
2024/02/01 01:26:05;;;;;;;;;;;6.40;99.90;;;;;;5001072;28;20334;-77
2024/02/01 01:28:31;;;;;;;;;;;6.50;99.90;;;;;;5050871;28;20660;-76
2024/02/01 01:30:57;;;;;;;;;;;6.50;99.90;;;;;;5043871;28;20611;-77
2024/02/01 01:33:22;;;;;;;;;;;6.40;99.90;;;;;;5020806;28;19979;-76
2024/02/01 01:35:48;;;;;;;;;;;6.50;99.90;;;;;;5026221;28;19963;-77
2024/02/01 01:38:14;;;;;;;;;;;6.50;99.90;;;;;;5020035;28;20353;-77
2024/02/01 01:40:39;;;;;;;;;;;6.50;99.90;;;;;;5037056;28;19963;-77
2024/02/01 01:43:05;;;;;;;;;;;6.40;99.90;;;;;;5050202;28;19962;-77
2024/02/01 01:45:31;;;;;;;;;;;6.50;99.90;;;;;;5040125;28;19970;-77
2024/02/01 01:47:56;;;;;;;;;;;6.40;99.90;;;;;;5039370;28;19917;-77
2024/02/01 01:50:25;;;;;;;;;;;6.40;99.90;;;;;;5055877;28;19917;-77
2024/02/01 01:52:51;;;;;;;;;;;6.40;99.90;;;;;;5039632;28;19952;-76
2024/02/01 01:55:17;;;;;;;;;;;6.40;99.90;;;;;;5056797;28;19967;-76
2024/02/01 01:57:42;;;;;;;;;;;6.40;99.90;;;;;;5047960;28;19944;-77
2024/02/01 02:00:09;;;;;;;;;;;6.40;99.90;;;;;;5019842;28;20487;-77
2024/02/01 02:02:35;;;;;;;;;;;6.30;99.90;;;;;;5036039;28;19949;-77
2024/02/01 02:05:01;;;;;;;;;;;6.30;99.90;;;;;;5039498;28;19963;-77
2024/02/01 02:07:27;;;;;;;;;;;6.30;99.90;;;;;;5039394;28;19928;-77
2024/02/01 02:09:52;;;;;;;;;;;6.30;99.90;;;;;;5055969;28;19913;-77
2024/02/01 02:12:19;;;;;;;;;;;6.40;99.90;;;;;;5056144;28;20007;-76
2024/02/01 02:14:57;;;;;;;;;;;6.30;99.90;;;;;;5043129;28;19917;-76
2024/02/01 02:17:25;;;;;;;;;;;6.30;99.90;;;;;;5058972;28;20121;-75
2024/02/01 02:19:51;;;;;;;;;;;6.30;99.90;;;;;;5066277;28;19951;-75
2024/02/01 02:22:17;;;;;;;;;;;6.30;99.90;;;;;;5052329;28;19964;-75
2024/02/01 02:24:43;;;;;;;;;;;6.20;99.90;;;;;;5052514;28;19928;-75
2024/02/01 02:27:10;;;;;;;;;;;6.30;99.90;;;;;;5036104;28;19913;-75
2024/02/01 02:29:36;;;;;;;;;;;6.30;99.90;;;;;;5052671;28;19921;-75
2024/02/01 02:32:01;;;;;;;;;;;6.30;99.90;;;;;;5038763;28;19917;-75
2024/02/01 02:34:27;;;;;;;;;;;6.30;99.90;;;;;;5054834;28;19917;-76
2024/02/01 02:36:53;;;;;;;;;;;6.20;99.90;;;;;;5054991;28;19924;-76
2024/02/01 02:39:19;;;;;;;;;;;6.30;99.90;;;;;;5023036;28;19920;-77
2024/02/01 02:41:44;;;;;;;;;;;6.30;99.90;;;;;;5039472;28;19928;-77
2024/02/01 02:44:11;;;;;;;;;;;6.40;99.90;;;;;;5039070;28;19921;-76
2024/02/01 02:46:37;;;;;;;;;;;6.40;99.90;;;;;;5055863;28;19923;-77
2024/02/01 02:49:03;;;;;;;;;;;6.40;99.90;;;;;;5031653;28;19925;-77
2024/02/01 02:51:29;;;;;;;;;;;6.40;99.90;;;;;;5031184;28;19921;-77
2024/02/01 02:53:55;;;;;;;;;;;6.40;99.90;;;;;;5054072;28;20502;-77
2024/02/01 02:56:24;;;;;;;;;;;6.40;99.90;;;;;;5055006;28;20329;-77
2024/02/01 02:58:50;;;;;;;;;;;6.40;99.90;;;;;;5035006;28;19917;-77
2024/02/01 03:01:16;;;;;;;;;;;6.30;99.90;;;;;;5046930;28;20667;-77
2024/02/01 03:03:41;;;;;;;;;;;6.30;99.90;;;;;;5020987;28;19990;-77
2024/02/01 03:06:08;;;;;;;;;;;6.30;99.90;;;;;;5027713;28;19962;-77
2024/02/01 03:08:33;;;;;;;;;;;6.30;99.90;;;;;;5046506;28;20039;-77
2024/02/01 03:10:59;;;;;;;;;;;6.40;99.90;;;;;;5030728;28;19932;-77
2024/02/01 03:13:24;;;;;;;;;;;6.30;99.90;;;;;;5025983;28;19912;-77
2024/02/01 03:15:50;;;;;;;;;;;6.30;99.90;;;;;;5054238;28;19974;-77
2024/02/01 03:18:16;;;;;;;;;;;6.40;99.90;;;;;;5053745;28;19917;-77
2024/02/01 03:20:44;;;;;;;;;;;6.30;99.90;;;;;;5037644;28;20416;-77
2024/02/01 03:23:10;;;;;;;;;;;6.40;99.90;;;;;;5036086;28;19925;-77
2024/02/01 03:25:39;;;;;;;;;;;6.30;99.90;;;;;;5053782;28;19913;-77
2024/02/01 03:28:05;;;;;;;;;;;6.30;99.90;;;;;;5051630;28;19974;-77
2024/02/01 03:30:31;;;;;;;;;;;6.30;99.90;;;;;;5017699;28;19921;-77
2024/02/01 03:32:57;;;;;;;;;;;6.30;99.90;;;;;;5001167;28;19924;-77
2024/02/01 03:35:26;;;;;;;;;;;6.40;99.90;;;;;;5003359;28;20278;-77
2024/02/01 03:37:52;;;;;;;;;;;6.40;99.90;;;;;;5035613;28;19928;-77
2024/02/01 03:40:20;;;;;;;;;;;6.40;99.90;;;;;;5034448;28;19917;-76
2024/02/01 03:42:47;;;;;;;;;;;6.40;99.90;;;;;;5021890;28;19949;-77
2024/02/01 03:45:13;;;;;;;;;;;6.40;99.90;;;;;;5037546;28;20361;-77
2024/02/01 03:47:39;;;;;;;;;;;6.50;99.90;;;;;;5038140;28;19974;-76
2024/02/01 03:50:08;;;;;;;;;;;6.50;99.90;;;;;;5037741;28;20544;-76
2024/02/01 03:52:34;;;;;;;;;;;6.60;99.90;;;;;;5054005;28;19912;-77
2024/02/01 03:55:00;;;;;;;;;;;6.60;99.90;;;;;;5039919;28;19916;-76
2024/02/01 03:57:26;;;;;;;;;;;6.60;99.90;;;;;;5033933;28;19932;-77
2024/02/01 03:59:53;;;;;;;;;;;6.70;99.90;;;;;;5039719;28;19912;-77
2024/02/01 04:02:18;;;;;;;;;;;6.70;99.90;;;;;;5054811;28;20525;-77
2024/02/01 04:04:45;;;;;;;;;;;6.70;99.90;;;;;;5050700;28;20038;-77
2024/02/01 04:07:18;;;;;;;;;;;6.70;99.90;;;;;;5036850;28;19912;-76
2024/02/01 04:09:44;;;;;;;;;;;6.70;99.90;;;;;;5074771;28;19944;-77
2024/02/01 04:12:10;;;;;;;;;;;6.70;99.90;;;;;;5043980;28;19952;-77
2024/02/01 04:14:36;;;;;;;;;;;6.70;99.90;;;;;;5052577;28;19924;-77
2024/02/01 04:17:02;;;;;;;;;;;6.70;99.90;;;;;;5000890;28;19912;-77
2024/02/01 04:19:27;;;;;;;;;;;6.70;99.90;;;;;;5017552;28;19975;-77
2024/02/01 04:21:53;;;;;;;;;;;6.60;99.90;;;;;;5001684;28;19948;-76
2024/02/01 04:24:19;;;;;;;;;;;6.70;99.90;;;;;;5017002;28;19929;-76
2024/02/01 04:26:45;;;;;;;;;;;6.70;99.90;;;;;;5056786;28;19975;-75
2024/02/01 04:29:11;;;;;;;;;;;6.80;99.90;;;;;;5054102;28;19956;-77
2024/02/01 04:31:40;;;;;;;;;;;6.80;99.90;;;;;;5053372;28;19952;-76
2024/02/01 04:34:05;;;;;;;;;;;6.80;99.90;;;;;;5053590;28;19924;-77
2024/02/01 04:36:31;;;;;;;;;;;6.80;99.90;;;;;;5018283;28;20257;-77
2024/02/01 04:38:57;;;;;;;;;;;6.80;99.90;;;;;;5021689;28;19975;-77
2024/02/01 04:41:24;;;;;;;;;;;6.80;99.90;;;;;;5039748;28;19962;-76
2024/02/01 04:43:50;;;;;;;;;;;6.80;99.90;;;;;;5048110;28;19917;-77
2024/02/01 04:46:16;;;;;;;;;;;6.80;99.90;;;;;;5053330;28;19920;-77
2024/02/01 04:48:41;;;;;;;;;;;6.80;99.90;;;;;;5047086;28;20395;-77
2024/02/01 04:51:07;;;;;;;;;;;6.80;99.90;;;;;;5063741;28;19916;-76
2024/02/01 04:53:33;;;;;;;;;;;6.80;99.90;;;;;;5036703;28;19948;-77
2024/02/01 04:56:00;;;;;;;;;;;6.80;99.90;;;;;;5053283;28;20431;-77
2024/02/01 04:58:26;;;;;;;;;;;6.80;99.90;;;;;;5034369;28;20725;-77
2024/02/01 05:00:52;;;;;;;;;;;6.80;99.90;;;;;;5003520;28;19949;-77
2024/02/01 05:03:17;;;;;;;;;;;6.90;99.90;;;;;;5044591;28;19920;-77
2024/02/01 05:05:45;;;;;;;;;;;6.90;99.90;;;;;;5039996;28;20381;-76
2024/02/01 05:08:15;;;;;;;;;;;6.90;99.90;;;;;;5039872;28;19917;-77
2024/02/01 05:10:44;;;;;;;;;;;6.90;99.90;;;;;;5039526;28;20636;-76
2024/02/01 05:13:12;;;;;;;;;;;6.90;99.90;;;;;;5039507;28;19932;-77
2024/02/01 05:15:45;;;;;;;;;;;6.90;99.90;;;;;;5055206;28;20011;-77
2024/02/01 05:18:12;;;;;;;;;;;6.90;99.90;;;;;;5038953;28;19917;-75
2024/02/01 05:20:42;;;;;;;;;;;6.90;99.90;;;;;;5055053;28;20334;-77
2024/02/01 05:23:09;;;;;;;;;;;6.90;99.90;;;;;;5039048;28;20268;-76
2024/02/01 05:25:40;;;;;;;;;;;6.90;99.90;;;;;;5026151;28;19917;-76
2024/02/01 05:28:09;;;;;;;;;;;6.90;99.90;;;;;;5056412;28;20340;-76
2024/02/01 05:30:35;;;;;;;;;;;6.90;99.90;;;;;;5060205;28;19920;-76
2024/02/01 05:33:01;;;;;;;;;;;6.90;99.90;;;;;;5045192;28;20007;-76
2024/02/01 05:35:30;;;;;;;;;;;6.90;99.90;;;;;;5041992;28;19948;-76
2024/02/01 05:37:56;;;;;;;;;;;7.00;99.90;;;;;;5057137;28;19995;-76
2024/02/01 05:40:22;;;;;;;;;;;6.90;99.90;;;;;;5057222;28;19924;-76
2024/02/01 05:42:48;;;;;;;;;;;7.00;99.90;;;;;;5056774;28;19917;-75
2024/02/01 05:45:14;;;;;;;;;;;7.00;99.90;;;;;;5039958;28;20241;-76
2024/02/01 05:47:41;;;;;;;;;;;7.00;99.90;;;;;;5057133;28;19917;-76
2024/02/01 05:50:07;;;;;;;;;;;6.90;99.90;;;;;;5056809;28;20002;-76
2024/02/01 05:52:36;;;;;;;;;;;7.10;99.90;;;;;;5056032;28;20606;-76
2024/02/01 05:55:05;;;;;;;;;;;7.00;99.90;;;;;;5057267;28;19913;-76
2024/02/01 05:57:31;;;;;;;;;;;7.00;99.90;;;;;;5025604;28;20018;-76
2024/02/01 05:59:59;;;;;;;;;;;7.00;99.90;;;;;;5032716;28;19919;-76
2024/02/01 06:02:25;;;;;;;;;;;7.10;99.90;;;;;;5059361;28;20210;-76
2024/02/01 06:04:51;;;;;;;;;;;7.00;99.90;;;;;;5044249;28;19917;-76
2024/02/01 06:07:17;;;;;;;;;;;7.10;99.90;;;;;;5036641;28;20264;-75
2024/02/01 06:09:44;;;;;;;;;;;7.10;99.90;;;;;;5038413;28;19966;-76
2024/02/01 06:12:09;;;;;;;;;;;7.10;99.90;;;;;;5070843;28;19982;-76
2024/02/01 06:14:37;;;;;;;;;;;7.10;99.90;;;;;;5059625;28;20329;-76
2024/02/01 06:17:02;;;;;;;;;;;7.10;99.90;;;;;;5059777;28;19962;-76
2024/02/01 06:19:28;;;;;;;;;;;7.10;99.90;;;;;;5044680;28;20011;-77
2024/02/01 06:21:54;;;;;;;;;;;7.10;99.90;;;;;;5040190;28;19924;-75
2024/02/01 06:24:19;;;;;;;;;;;7.20;99.90;;;;;;5039651;28;19932;-75
2024/02/01 06:26:45;;;;;;;;;;;7.20;99.90;;;;;;5019859;28;19924;-76
2024/02/01 06:29:11;;;;;;;;;;;7.20;99.90;;;;;;5036583;28;19939;-76
2024/02/01 06:31:40;;;;;;;;;;;7.20;99.90;;;;;;5063994;28;19917;-75
2024/02/01 06:34:09;;;;;;;;;;;7.20;99.90;;;;;;5059581;28;20321;-75
2024/02/01 06:36:39;;;;;;;;;;;7.20;99.90;;;;;;5030478;28;20302;-76
2024/02/01 06:41:47;;;;;;;;;;;7.20;99.90;;;;;;5039942;28;19912;-76
2024/02/01 06:44:43;;;;;;;;;;;7.20;99.90;;;;;;5043713;28;19920;-75
2024/02/01 06:49:39;;;;;;;;;;;7.10;99.90;;;;;;5046290;28;19920;-75
2024/02/01 06:54:55;;;;;;;;;;;7.10;99.90;;;;;;5044339;28;19927;-75
2024/02/01 06:57:22;;;;;;;;;;;7.10;99.90;;;;;;5044298;28;20310;-75
2024/02/01 07:02:36;;;;;;;;;;;7.00;99.90;;;;;;5055005;28;19990;-76
2024/02/01 07:05:58;;;;;;;;;;;7.00;99.90;;;;;;5054505;28;19927;-77
2024/02/01 07:07:50;;;;;;;;;;;7.00;99.90;;;;;;5038309;28;19913;-77
2024/02/01 07:10:17;;;;;;;;;;;6.90;99.90;;;;;;5045225;28;19938;-76
2024/02/01 07:12:53;;;;;;;;;;;6.90;99.90;;;;;;5027974;28;19999;-75
2024/02/01 07:17:58;;;;;;;;;;;6.90;99.90;;;;;;5054899;28;19916;-77
2024/02/01 07:20:35;;;;;;;;;;;6.90;99.90;;;;;;5052578;28;19940;-76
2024/02/01 07:23:33;;;;;;;;;;;6.90;99.90;;;;;;5052811;28;19921;-77
2024/02/01 07:57:36;;;;;;;;;;;6.90;99.90;;;;;;5058199;28;19916;-77
2024/02/01 07:59:38;;;;;;;;;;;6.70;99.90;;;;;;5068976;28;20291;-77
2024/02/01 08:02:23;;;;;;;;;;;6.70;99.90;;;;;;5031402;28;19923;-78
2024/02/01 08:07:48;;;;;;;;;;;6.70;99.90;;;;;;5041351;28;19917;-77
2024/02/01 08:10:19;;;;;;;;;;;6.70;99.90;;;;;;5039612;28;19917;-77
2024/02/01 08:12:45;;;;;;;;;;;6.70;99.90;;;;;;5038419;28;19999;-77
2024/02/01 08:15:18;;;;;;;;;;;6.80;99.90;;;;;;5015639;28;20003;-77
2024/02/01 08:17:47;;;;;;;;;;;6.70;99.90;;;;;;5024563;28;19917;-76
2024/02/01 08:20:13;;;;;;;;;;;6.70;99.90;;;;;;5054628;28;20556;-77
2024/02/01 08:22:43;;;;;;;;;;;6.70;99.90;;;;;;5035117;28;19949;-77
2024/02/01 08:25:09;;;;;;;;;;;6.60;99.90;;;;;;5023617;28;19917;-77
2024/02/01 08:27:36;;;;;;;;;;;6.60;99.90;;;;;;5025707;28;20174;-77
2024/02/01 08:30:12;;;;;;;;;;;6.60;99.90;;;;;;5034859;28;19939;-77
2024/02/01 08:32:39;;;;;;;;;;;6.60;99.90;;;;;;5035458;28;19917;-78
2024/02/01 08:35:09;;;;;;;;;;;6.60;99.90;;;;;;5036929;28;19927;-77
2024/02/01 08:37:35;;;;;;;;;;;6.60;99.90;;;;;;5045800;28;19924;-77
2024/02/01 08:40:02;;;;;;;;;;;6.70;99.90;;;;;;5018508;28;19917;-77
2024/02/01 08:42:30;;;;;;;;;;;6.70;99.90;;;;;;5036749;28;19917;-77
2024/02/01 08:44:56;;;;;;;;;;;6.70;99.90;;;;;;5051032;28;20297;-78
2024/02/01 08:47:23;;;;;;;;;;;6.70;99.90;;;;;;5039795;28;19917;-77
2024/02/01 08:49:49;;;;;;;;;;;6.70;99.90;;;;;;5031218;28;20314;-77
2024/02/01 08:52:15;;;;;;;;;;;6.70;99.90;;;;;;5035836;28;19923;-77
2024/02/01 08:54:41;;;;;;;;;;;6.70;99.90;;;;;;5032438;28;20474;-76
2024/02/01 08:57:13;;;;;;;;;;;6.70;99.90;;;;;;5025307;28;19917;-77
2024/02/01 08:59:40;;;;;;;;;;;6.70;99.90;;;;;;5047820;28;19955;-79
2024/02/01 09:02:14;;;;;;;;;;;6.70;99.90;;;;;;5014381;28;19927;-78
2024/02/01 09:04:41;;;;;;;;;;;6.70;99.90;;;;;;5023379;28;19931;-76
2024/02/01 09:07:06;;;;;;;;;;;6.60;99.90;;;;;;5022529;28;19917;-76
2024/02/01 09:09:33;;;;;;;;;;;6.60;99.90;;;;;;5030014;28;19917;-76
2024/02/01 09:11:59;;;;;;;;;;;6.60;99.90;;;;;;5046563;28;19939;-76
2024/02/01 09:14:25;;;;;;;;;;;6.70;99.90;;;;;;5030551;28;19928;-78
2024/02/01 09:16:53;;;;;;;;;;;6.70;99.90;;;;;;5017368;28;20254;-76
2024/02/01 09:19:19;;;;;;;;;;;6.70;99.90;;;;;;5038913;28;19913;-77
2024/02/01 09:21:44;;;;;;;;;;;6.70;99.90;;;;;;5036620;28;19913;-76
2024/02/01 09:24:10;;;;;;;;;;;6.80;99.90;;;;;;5045258;28;20300;-75
2024/02/01 09:26:35;;;;;;;;;;;6.90;99.90;;;;;;4999797;28;19927;-75
2024/02/01 09:29:11;;;;;;;;;;;6.80;99.90;;;;;;5015912;28;19917;-76
2024/02/01 09:31:37;;;;;;;;;;;6.80;99.90;;;;;;5037237;28;20017;-75
2024/02/01 09:34:04;;;;;;;;;;;6.90;99.90;;;;;;5045914;28;19932;-75
2024/02/01 09:36:33;;;;;;;;;;;6.80;99.90;;;;;;5045663;28;19917;-75
2024/02/01 09:38:59;;;;;;;;;;;6.90;99.90;;;;;;5032293;28;20322;-76
2024/02/01 09:41:25;;;;;;;;;;;6.90;99.90;;;;;;5019889;28;19913;-75
2024/02/01 09:43:51;;;;;;;;;;;6.90;99.90;;;;;;5053189;28;19920;-76
2024/02/01 09:46:18;;;;;;;;;;;6.90;99.90;;;;;;5032751;28;19917;-76
2024/02/01 09:48:44;;;;;;;;;;;6.80;99.90;;;;;;5036628;28;19917;-76
2024/02/01 09:51:17;;;;;;;;;;;6.90;99.90;;;;;;5041292;28;19984;-76
2024/02/01 09:53:49;;;;;;;;;;;6.90;99.90;;;;;;5037541;28;19917;-76
2024/02/01 09:56:16;;;;;;;;;;;6.80;99.90;;;;;;5069206;28;20328;-76
2024/02/01 09:58:41;;;;;;;;;;;6.80;99.90;;;;;;5034640;28;19923;-76
2024/02/01 10:01:10;;;;;;;;;;;6.80;99.90;;;;;;5055566;28;20650;-75
2024/02/01 10:03:42;;;;;;;;;;;6.90;99.90;;;;;;5056648;28;20375;-76
2024/02/01 10:06:08;;;;;;;;;;;6.80;99.90;;;;;;5060516;28;19973;-75
2024/02/01 10:08:35;;;;;;;;;;;6.80;99.90;;;;;;5066248;28;19916;-76
2024/02/01 10:11:01;;;;;;;;;;;6.80;99.90;;;;;;5054947;28;20814;-75
2024/02/01 10:13:33;;;;;;;;;;;7.00;99.90;;;;;;5056311;28;19913;-76
2024/02/01 10:16:02;;;;;;;;;;;7.10;99.90;;;;;;5034971;28;19916;-76
2024/02/01 10:18:27;;;;;;;;;;;7.30;99.90;;;;;;5043024;28;19926;-75
2024/02/01 10:20:54;;;;;;;;;;;7.40;99.90;;;;;;5035848;28;19996;-76
2024/02/01 10:23:20;;;;;;;;;;;7.50;99.90;;;;;;5035819;28;19925;-75
2024/02/01 10:28:22;;;;;;;;;;;7.50;99.90;;;;;;5125462;22;19929;-77
2024/02/01 10:30:49;;;;;;;;;;;7.60;99.90;;;;;;5058657;28;19970;-77
2024/02/01 10:33:26;;;;;;;;;;;7.80;99.90;;;;;;5053826;28;19928;-76
2024/02/01 10:35:52;;;;;;;;;;;7.80;99.90;;;;;;5023635;28;19923;-77
2024/02/01 10:38:22;;;;;;;;;;;7.90;99.90;;;;;;5052376;28;20011;-77
2024/02/01 10:40:51;;;;;;;;;;;8.00;99.90;;;;;;5047153;28;19916;-77
2024/02/01 10:43:18;;;;;;;;;;;8.00;99.90;;;;;;5061917;28;19923;-77
2024/02/01 10:45:45;;;;;;;;;;;8.00;99.90;;;;;;5054766;28;19916;-77
2024/02/01 10:48:11;;;;;;;;;;;8.10;99.90;;;;;;5067441;28;19913;-76
2024/02/01 10:50:37;;;;;;;;;;;8.40;99.90;;;;;;5056891;28;19916;-77
2024/02/01 10:53:02;;;;;;;;;;;8.40;99.90;;;;;;5059916;28;19966;-77
2024/02/01 10:55:28;;;;;;;;;;;8.30;99.90;;;;;;5042926;28;19924;-78
2024/02/01 10:57:59;;;;;;;;;;;8.20;99.90;;;;;;5059514;28;20345;-78
2024/02/01 11:00:28;;;;;;;;;;;8.60;99.90;;;;;;5065449;28;19920;-76
2024/02/01 11:02:54;;;;;;;;;;;8.60;99.90;;;;;;5054594;28;19974;-76
2024/02/01 11:05:30;;;;;;;;;;;8.70;99.90;;;;;;5039883;28;19920;-76
2024/02/01 11:07:56;;;;;;;;;;;9.00;99.90;;;;;;5066860;28;19928;-77
2024/02/01 11:10:23;;;;;;;;;;;8.70;99.90;;;;;;5057864;28;19924;-78
2024/02/01 11:12:55;;;;;;;;;;;8.60;99.90;;;;;;5070799;28;19916;-77
2024/02/01 11:15:24;;;;;;;;;;;8.50;99.90;;;;;;5085311;28;19916;-76
2024/02/01 11:17:50;;;;;;;;;;;9.00;99.90;;;;;;5037396;28;20404;-77
2024/02/01 11:20:22;;;;;;;;;;;9.60;99.90;;;;;;5061850;28;19999;-77
2024/02/01 11:22:55;;;;;;;;;;;9.60;99.90;;;;;;5062662;28;20364;-77
2024/02/01 11:25:26;;;;;;;;;;;10.00;99.90;;;;;;5053758;28;19920;-77
2024/02/01 11:27:51;;;;;;;;;;;9.70;99.90;;;;;;5057815;28;19929;-77
2024/02/01 11:30:24;;;;;;;;;;;9.40;99.90;;;;;;5060189;28;19921;-77
2024/02/01 11:32:50;;;;;;;;;;;9.30;99.90;;;;;;5055854;28;19913;-77
2024/02/01 11:35:16;;;;;;;;;;;9.00;99.90;;;;;;5066014;28;19916;-77
2024/02/01 11:37:42;;;;;;;;;;;8.80;99.90;;;;;;5050322;28;19923;-77
2024/02/01 11:40:15;;;;;;;;;;;8.80;99.90;;;;;;5059795;28;20316;-77
2024/02/01 11:42:41;;;;;;;;;;;9.10;99.90;;;;;;5055604;28;20813;-77
2024/02/01 11:45:08;;;;;;;;;;;9.90;99.90;;;;;;5066419;28;19920;-77
2024/02/01 11:47:35;;;;;;;;;;;10.30;99.90;;;;;;5034420;28;20050;-77
2024/02/01 11:50:02;;;;;;;;;;;10.40;99.90;;;;;;5060306;28;20007;-78
2024/02/01 11:52:44;;;;;;;;;;;10.50;99.90;;;;;;5040456;28;20364;-77
2024/02/01 11:55:10;;;;;;;;;;;10.20;99.90;;;;;;5055008;28;20346;-77
2024/02/01 11:57:47;;;;;;;;;;;10.70;99.90;;;;;;5041023;28;19952;-78
2024/02/01 12:00:16;;;;;;;;;;;11.10;99.90;;;;;;5067215;28;19923;-77
2024/02/01 12:02:45;;;;;;;;;;;11.10;99.90;;;;;;5066048;28;19920;-77
2024/02/01 12:05:11;;;;;;;;;;;11.40;99.90;;;;;;5038058;28;20178;-77
2024/02/01 12:07:37;;;;;;;;;;;11.00;99.90;;;;;;5059852;28;19920;-77
2024/02/01 12:10:10;;;;;;;;;;;10.50;99.90;;;;;;5061830;28;20347;-77
2024/02/01 12:12:36;;;;;;;;;;;10.20;99.90;;;;;;5054003;28;20325;-76
2024/02/01 12:15:04;;;;;;;;;;;9.90;99.90;;;;;;5046499;28;19967;-78
2024/02/01 12:17:42;;;;;;;;;;;9.80;99.90;;;;;;5058452;28;19951;-78
2024/02/01 12:20:18;;;;;;;;;;;9.70;99.90;;;;;;5038551;28;20008;-77
2024/02/01 12:22:44;;;;;;;;;;;10.10;99.90;;;;;;5033258;28;19966;-77
2024/02/01 12:25:10;;;;;;;;;;;10.40;99.90;;;;;;5043874;28;19920;-77
2024/02/01 12:27:36;;;;;;;;;;;11.00;99.90;;;;;;5056463;28;19928;-77
2024/02/01 12:30:11;;;;;;;;;;;10.90;99.90;;;;;;5048143;28;19974;-77
2024/02/01 12:32:45;;;;;;;;;;;11.40;99.90;;;;;;5029441;28;19917;-77
2024/02/01 12:35:12;;;;;;;;;;;11.20;99.90;;;;;;5047755;28;19920;-77
2024/02/01 12:37:40;;;;;;;;;;;11.10;99.90;;;;;;5055474;28;19963;-77
2024/02/01 12:40:07;;;;;;;;;;;10.50;99.90;;;;;;5037789;28;20343;-77
2024/02/01 12:42:33;;;;;;;;;;;9.90;99.90;;;;;;5062614;28;19956;-77
2024/02/01 12:44:59;;;;;;;;;;;9.30;99.90;;;;;;5048859;28;20414;-76
2024/02/01 12:47:25;;;;;;;;;;;9.20;99.90;;;;;;5027918;28;20039;-77
2024/02/01 12:49:51;;;;;;;;;;;9.20;99.90;;;;;;5057155;28;19916;-77
2024/02/01 12:52:17;;;;;;;;;;;9.30;99.90;;;;;;5052324;28;19946;-76
2024/02/01 12:54:45;;;;;;;;;;;10.00;99.90;;;;;;5059942;28;19920;-76
2024/02/01 12:57:10;;;;;;;;;;;10.20;99.90;;;;;;5035355;28;19917;-77
2024/02/01 12:59:36;;;;;;;;;;;9.80;99.90;;;;;;5042073;28;20260;-76
2024/02/01 13:02:05;;;;;;;;;;;9.50;99.90;;;;;;5035956;28;19916;-77
2024/02/01 13:04:31;;;;;;;;;;;9.30;99.90;;;;;;5060605;28;20017;-77
2024/02/01 13:06:57;;;;;;;;;;;9.10;99.90;;;;;;5059927;28;20363;-77
2024/02/01 13:09:28;;;;;;;;;;;9.00;99.90;;;;;;5053246;28;20475;-77
2024/02/01 13:11:58;;;;;;;;;;;8.90;99.90;;;;;;5019455;28;19916;-76
2024/02/01 13:14:28;;;;;;;;;;;8.60;99.90;;;;;;5036150;28;20355;-76
2024/02/01 13:16:57;;;;;;;;;;;8.70;99.90;;;;;;5044944;28;19916;-77
2024/02/01 13:19:23;;;;;;;;;;;8.50;99.90;;;;;;5067886;28;20498;-77
2024/02/01 13:21:50;;;;;;;;;;;8.80;99.90;;;;;;5048108;28;20406;-79
2024/02/01 13:24:15;;;;;;;;;;;8.90;99.90;;;;;;5049557;28;19977;-80
2024/02/01 13:26:41;;;;;;;;;;;8.90;99.90;;;;;;5063405;28;19920;-78
2024/02/01 13:29:13;;;;;;;;;;;8.90;99.90;;;;;;5068621;28;19924;-79
2024/02/01 13:31:42;;;;;;;;;;;8.60;99.90;;;;;;5048242;28;20329;-79
2024/02/01 13:34:08;;;;;;;;;;;8.70;99.90;;;;;;5062850;28;19947;-79
2024/02/01 13:36:34;;;;;;;;;;;8.70;99.90;;;;;;5064104;28;19916;-79
2024/02/01 13:38:59;;;;;;;;;;;8.90;99.90;;;;;;5054706;28;19916;-78
2024/02/01 13:41:25;;;;;;;;;;;8.90;99.90;;;;;;5068045;28;19917;-78
2024/02/01 13:43:51;;;;;;;;;;;9.10;99.90;;;;;;5058842;28;19920;-78
2024/02/01 13:46:16;;;;;;;;;;;9.30;99.90;;;;;;5068234;28;19920;-78
2024/02/01 13:48:42;;;;;;;;;;;9.30;99.90;;;;;;5039240;28;19917;-79
2024/02/01 13:51:08;;;;;;;;;;;9.20;99.90;;;;;;5067194;28;19947;-79
2024/02/01 13:53:34;;;;;;;;;;;8.90;99.90;;;;;;5041008;28;20347;-79
2024/02/01 13:56:00;;;;;;;;;;;8.70;99.90;;;;;;5070831;28;19916;-79
2024/02/01 13:58:26;;;;;;;;;;;8.50;99.90;;;;;;5055890;28;19912;-77
2024/02/01 14:00:51;;;;;;;;;;;8.40;99.90;;;;;;5036458;28;19917;-78
2024/02/01 14:03:17;;;;;;;;;;;8.30;99.90;;;;;;5060354;28;20382;-78
2024/02/01 14:05:43;;;;;;;;;;;8.20;99.90;;;;;;5060852;28;19921;-77
2024/02/01 14:08:09;;;;;;;;;;;8.10;99.90;;;;;;5064713;28;19985;-78
2024/02/01 14:10:34;;;;;;;;;;;8.10;99.90;;;;;;5054941;28;20083;-78
2024/02/01 14:13:00;;;;;;;;;;;8.10;99.90;;;;;;5055480;28;20240;-78
2024/02/01 14:15:26;;;;;;;;;;;8.10;99.90;;;;;;5063356;28;19921;-78
2024/02/01 14:17:51;;;;;;;;;;;8.10;99.90;;;;;;5063460;28;20427;-79
2024/02/01 14:20:17;;;;;;;;;;;8.00;99.90;;;;;;5054047;28;19925;-80
2024/02/01 14:22:43;;;;;;;;;;;7.90;99.90;;;;;;5054405;28;19967;-80
2024/02/01 14:25:10;;;;;;;;;;;8.10;99.90;;;;;;5042252;28;19972;-79
2024/02/01 14:27:36;;;;;;;;;;;8.00;99.90;;;;;;5046053;28;19920;-77
2024/02/01 14:30:02;;;;;;;;;;;7.90;99.90;;;;;;5045540;28;19917;-78
2024/02/01 14:32:29;;;;;;;;;;;7.90;99.90;;;;;;5051068;28;20209;-77
2024/02/01 14:34:55;;;;;;;;;;;7.80;99.90;;;;;;5059442;28;19912;-77
2024/02/01 14:37:22;;;;;;;;;;;7.70;99.90;;;;;;5026541;28;19916;-79
2024/02/01 14:39:48;;;;;;;;;;;7.70;99.90;;;;;;5037329;28;19982;-79
2024/02/01 14:42:14;;;;;;;;;;;7.70;99.90;;;;;;5050168;28;20388;-79
2024/02/01 14:44:39;;;;;;;;;;;7.70;99.90;;;;;;5051734;28;19920;-79
2024/02/01 14:47:06;;;;;;;;;;;7.70;99.90;;;;;;5060943;28;20312;-78
2024/02/01 14:49:32;;;;;;;;;;;7.70;99.90;;;;;;5038629;28;19927;-78
2024/02/01 14:51:58;;;;;;;;;;;7.70;99.90;;;;;;5035462;28;19916;-79
2024/02/01 14:54:24;;;;;;;;;;;7.60;99.90;;;;;;5064228;28;19928;-79
2024/02/01 14:56:51;;;;;;;;;;;7.60;99.90;;;;;;5057411;28;19920;-79
2024/02/01 14:59:17;;;;;;;;;;;7.70;99.90;;;;;;5064244;28;20055;-78
2024/02/01 15:01:43;;;;;;;;;;;7.60;99.90;;;;;;5052256;28;19920;-79
2024/02/01 15:04:08;;;;;;;;;;;7.50;99.90;;;;;;5037805;28;19920;-78
2024/02/01 15:06:34;;;;;;;;;;;7.50;99.90;;;;;;5056286;28;20043;-78
2024/02/01 15:09:03;;;;;;;;;;;7.50;99.90;;;;;;5034356;28;19927;-80
2024/02/01 15:11:29;;;;;;;;;;;7.50;99.90;;;;;;5052799;28;20332;-78
2024/02/01 15:13:55;;;;;;;;;;;7.50;99.90;;;;;;5053278;28;19932;-78
2024/02/01 15:16:21;;;;;;;;;;;7.50;99.90;;;;;;5055607;28;20252;-80
2024/02/01 15:18:47;;;;;;;;;;;7.50;99.90;;;;;;5044441;28;19916;-79